createdAt,value
2023-01-12T00:01:53.961Z,100835.03
2023-01-12T00:09:29.519Z,100852.75
2023-01-12T00:17:03.485Z,100863.16
2023-01-12T00:24:40.485Z,100859.69
2023-01-12T00:32:16.207Z,100848.19
2023-01-12T00:40:01.722Z,100831.31
2023-01-12T00:47:36.763Z,100843.75
2023-01-12T00:55:13.034Z,100831.25
2023-01-12T01:02:47.020Z,100807.41
2023-01-12T01:10:22.386Z,100813.56
2023-01-12T01:17:56.236Z,100815.41
2023-01-12T01:25:31.402Z,100807.38
2023-01-12T01:33:05.344Z,100795.03
2023-01-12T01:40:43.719Z,100795.94
2023-01-12T01:48:19.105Z,100786.38
2023-01-12T01:55:59.128Z,100781.13
2023-01-12T02:03:36.581Z,100768.88
2023-01-12T02:11:32.737Z,100746.91
2023-01-12T02:19:28.943Z,100738.16
2023-01-12T02:27:29.729Z,100744.63
2023-01-12T02:35:13.355Z,100735.97
2023-01-12T02:42:56.692Z,100714.91
2023-01-12T02:50:41.977Z,100711.28
2023-01-12T02:58:19.640Z,100703.47
2023-01-12T03:05:57.812Z,100703.47
2023-01-12T03:13:34.557Z,100700.91
2023-01-12T03:21:13.877Z,100692.19
2023-01-12T03:28:52.622Z,100681.72
2023-01-12T03:36:40.047Z,100688.03
2023-01-12T03:44:22.396Z,100688.16
2023-01-12T03:51:59.126Z,100682.06
2023-01-12T03:59:33.854Z,100688.25
2023-01-12T04:07:09.019Z,100668.03
2023-01-12T04:14:47.661Z,100655.72
2023-01-12T04:22:40.730Z,100650.50
2023-01-12T04:30:15.356Z,100641.78
2023-01-12T04:37:50.554Z,100635.72
2023-01-12T04:45:25.035Z,100630.75
2023-01-12T04:53:02.961Z,100623.91
2023-01-12T05:00:37.450Z,100626.78
2023-01-12T05:08:30.046Z,100616.50
2023-01-12T05:16:11.606Z,100613.88
2023-01-12T05:23:47.023Z,100623.75
2023-01-12T05:31:21.238Z,100624.75
2023-01-12T05:38:56.472Z,100619.69
2023-01-12T05:46:33.772Z,100613.59
2023-01-12T05:54:09.513Z,100620.66
2023-01-12T06:01:44.070Z,100618.81
2023-01-12T06:09:19.248Z,100605.66
2023-01-12T06:16:53.042Z,100601.19
2023-01-12T06:24:29.279Z,100595.84
2023-01-12T06:32:03.639Z,100580.78
2023-01-12T06:39:38.881Z,100578.25
2023-01-12T06:47:13.407Z,100569.41
2023-01-12T06:54:48.639Z,100564.09
2023-01-12T07:02:22.543Z,100566.94
2023-01-12T07:09:58.178Z,100560.69
2023-01-12T07:17:32.270Z,100550.22
2023-01-12T07:25:08.121Z,100539.66
2023-01-12T07:32:41.921Z,100539.81
2023-01-12T07:40:18.146Z,100536.34
2023-01-12T07:47:55.403Z,100503.81
2023-01-12T07:55:31.364Z,100505.91
2023-01-12T08:03:07.248Z,100504.41
2023-01-12T08:10:43.764Z,100496.47
2023-01-12T08:18:22.503Z,100499.16
2023-01-12T08:26:04.302Z,100489.59
2023-01-12T08:33:38.516Z,100474.75
2023-01-12T08:41:31.087Z,100468.72
2023-01-12T08:49:09.695Z,100476.03
2023-01-12T08:56:45.243Z,100464.72
2023-01-12T09:04:19.439Z,100451.47
2023-01-12T09:11:54.740Z,100450.72
2023-01-12T09:19:28.569Z,100436.66
2023-01-12T09:27:04.037Z,100427.88
2023-01-12T09:34:37.922Z,100415.72
2023-01-12T09:42:37.476Z,100403.53
2023-01-12T09:50:14.893Z,100390.38
2023-01-12T09:58:15.140Z,100376.41
2023-01-12T10:05:52.286Z,100364.06
2023-01-12T10:13:46.188Z,100368.72
2023-01-12T10:21:20.342Z,100350.09
2023-01-12T10:28:56.341Z,100357.41
2023-01-12T10:36:30.796Z,100350.25
2023-01-12T10:44:16.114Z,100338.81
2023-01-12T10:51:51.420Z,100328.03
2023-01-12T10:59:29.385Z,100319.16
2023-01-12T11:07:10.204Z,100284.34
2023-01-12T11:14:59.328Z,100278.91
2023-01-12T11:22:37.959Z,100271.78
2023-01-12T11:30:22.006Z,100262.00
2023-01-12T11:37:59.783Z,100264.56
2023-01-12T11:45:44.487Z,100244.91
2023-01-12T11:53:24.276Z,100244.97
2023-01-12T12:01:08.230Z,100239.72
2023-01-12T12:08:55.959Z,100236.25
2023-01-12T12:16:42.474Z,100225.72
2023-01-12T12:24:43.547Z,100228.59
2023-01-12T12:32:29.204Z,100222.47
2023-01-12T12:40:11.170Z,100246.44
2023-01-12T12:47:57.314Z,100221.66
2023-01-12T12:55:32.586Z,100229.63
2023-01-12T13:03:08.002Z,100225.22
2023-01-12T13:10:49.808Z,100227.94
2023-01-12T13:19:04.576Z,100228.88
2023-01-12T13:26:42.073Z,100215.53
2023-01-12T13:34:46.052Z,100220.97
2023-01-12T13:42:39.957Z,100212.09
2023-01-12T13:50:19.949Z,100228.03
2023-01-12T13:57:58.984Z,100225.38
2023-01-12T14:05:49.874Z,100234.25
2023-01-12T14:13:49.225Z,100225.34
2023-01-12T14:21:27.016Z,100220.91
2023-01-12T14:29:00.951Z,100229.88
2023-01-12T14:36:42.607Z,100223.69
2023-01-12T14:44:36.860Z,100208.66
2023-01-12T14:52:27.418Z,100206.91
2023-01-12T15:00:03.750Z,100222.06
2023-01-12T15:07:41.329Z,100216.75
2023-01-12T15:15:20.899Z,100208.78
2023-01-12T15:23:13.526Z,100212.34
2023-01-12T15:30:47.736Z,100225.72
2023-01-12T15:38:24.965Z,100223.00
2023-01-12T15:45:59.087Z,100229.22
2023-01-12T15:53:34.523Z,100225.66
2023-01-12T16:01:11.238Z,100239.03
2023-01-12T16:08:47.375Z,100236.38
2023-01-12T16:16:22.327Z,100240.78
2023-01-12T16:23:58.086Z,100235.56
2023-01-12T16:31:32.038Z,100232.00
2023-01-12T16:39:07.410Z,100246.25
2023-01-12T16:46:41.623Z,100249.94
2023-01-12T16:54:17.036Z,100222.31
2023-01-12T17:01:51.978Z,100227.66
2023-01-12T17:09:27.785Z,100230.34
2023-01-12T17:17:04.147Z,100227.72
2023-01-12T17:24:41.258Z,100224.19
2023-01-12T17:32:15.534Z,100229.56
2023-01-12T17:39:50.730Z,100235.84
2023-01-12T17:47:25.217Z,100239.38
2023-01-12T17:55:00.411Z,100230.44
2023-01-12T18:02:35.281Z,100219.75
2023-01-12T18:10:11.672Z,100223.31
2023-01-12T18:17:45.520Z,100216.19
2023-01-12T18:25:20.930Z,100208.22
2023-01-12T18:32:54.868Z,100204.66
2023-01-12T18:40:30.253Z,100189.56
2023-01-12T18:48:23.744Z,100190.47
2023-01-12T18:56:00.130Z,100189.56
2023-01-12T19:03:36.019Z,100178.88
2023-01-12T19:11:12.951Z,100180.69
2023-01-12T19:18:47.572Z,100173.59
2023-01-12T19:26:40.217Z,100172.69
2023-01-12T19:34:14.351Z,100171.84
2023-01-12T19:42:06.805Z,100158.44
2023-01-12T19:49:40.626Z,100179.78
2023-01-12T19:57:15.917Z,100172.53
2023-01-12T20:04:49.761Z,100170.72
2023-01-12T20:12:25.039Z,100163.53
2023-01-12T20:19:58.791Z,100160.75
2023-01-12T20:27:35.498Z,100166.00
2023-01-12T20:35:11.419Z,100157.06
2023-01-12T20:42:46.925Z,100162.28
2023-01-12T20:50:23.196Z,100165.78
2023-01-12T20:57:58.696Z,100160.41
2023-01-12T21:05:33.251Z,100143.50
2023-01-12T21:13:08.908Z,100155.03
2023-01-12T21:20:43.345Z,100152.34
2023-01-12T21:28:19.188Z,100146.97
2023-01-12T21:35:56.769Z,100145.16
2023-01-12T21:43:32.181Z,100129.13
2023-01-12T21:51:07.906Z,100113.09
2023-01-12T21:58:43.089Z,100123.75
2023-01-12T22:06:17.549Z,100122.88
2023-01-12T22:13:52.744Z,100112.16
2023-01-12T22:21:26.814Z,100106.88
2023-01-12T22:29:02.111Z,100100.59
2023-01-12T22:36:42.793Z,100095.28
2023-01-12T22:44:18.979Z,100102.34
2023-01-12T22:51:52.805Z,100082.81
2023-01-12T22:59:27.991Z,100088.13
2023-01-12T23:07:02.196Z,100070.34
2023-01-12T23:14:37.427Z,100089.94
2023-01-12T23:22:11.283Z,100054.38
2023-01-12T23:29:48.018Z,100058.81
2023-01-12T23:37:21.996Z,100048.16
2023-01-12T23:44:57.425Z,100038.38
2023-01-12T23:52:31.408Z,100049.97
